Kapuskasing Airport
CYYU : now visible

Aeroporto :











RITROVATECI SU...

 
LOGIN :

Iscrizione | Disclaimer

   EN    FR    IT 

 









Sommario :    VFR   VFR Marginale   IFR   IFR Intensivo   IFR Molto Intensivo
Visibilità : 
Base nubi : 
>= 8 km
>= 3000ft
5 / 8 km
1000 / 3000 ft
1500m / 5 km
500 / 1000 ft
800 / 1500m
200 / 500 ft
< 800m
< 200 ft
Simboli :   Temporali  Nebbia  Neve Forte  Precipitazioni Forti  Vento > 20 kt






- Altitudine del aeroporto : 743 ft
- Codice IATA : YYU


CYYU - Kapuskasing

ULTIMO METAR :
  • 171300Z CCA 17004KT 15SM FEW100 M28/M30 A3021 RMK AC1 AC TR FROIN SLP262

METARs OBSOLETI :
  • 171200Z 19003KT 15SM SKC M27/M30 A3019 RMK FROIN SLP255
  • 171100Z 20003KT 15SM SKC M29/M32 A3019 RMK FROIN SLP253

TAF TAF CYYU
Valido dal 17 a 08 ore il 17 a 20 ore UTC


170738Z 1708/1720 22005KT P6SM SKC
FM171800 20008KT P6SM SCT140 RMK NXT FCST BY 171400Z



MetMap, La meteo Aeronautica in un colpo d'occhio ! - Copyright ORBIFLY Dicembre 2007 - Disclaimer

ORBIFLY MET'MAP TEAM :

Programmazione e sviluppo : Alexandra Zaïnal
Concezione : Baudouin d'Aumeries
Aiuto per la programmazione : Marc-Olivier Méhu
Supporto tecnico e logistico : Manuel Goepfert
Aiuto per la traduzione : Arnaldo La Scala

Contatto : metmap@orbifly.com




FONTI E CREDITI :

   NOAA       Earth
Advisory